createdAt,value
2022-10-20T00:01:31.578Z,72.17
2022-10-20T00:03:32.855Z,72.16
2022-10-20T00:05:34.199Z,72.41
2022-10-20T00:07:35.478Z,72.83
2022-10-20T00:09:36.966Z,72.57
2022-10-20T00:11:38.301Z,72.80
2022-10-20T00:13:39.629Z,73.24
2022-10-20T00:15:40.957Z,73.22
2022-10-20T00:17:42.219Z,73.30
2022-10-20T00:19:43.496Z,73.41
2022-10-20T00:21:44.832Z,73.43
2022-10-20T00:23:46.123Z,73.34
2022-10-20T00:25:47.423Z,73.42
2022-10-20T00:27:48.754Z,73.42
2022-10-20T00:29:50.011Z,73.54
2022-10-20T00:31:51.311Z,73.58
2022-10-20T00:33:52.634Z,73.37
2022-10-20T00:35:53.900Z,73.49
2022-10-20T00:37:55.167Z,73.67
2022-10-20T00:39:56.518Z,73.70
2022-10-20T00:41:57.843Z,73.59
2022-10-20T00:43:59.114Z,73.61
2022-10-20T00:46:00.414Z,73.81
2022-10-20T00:48:01.693Z,73.70
2022-10-20T00:50:02.986Z,73.97
2022-10-20T00:52:04.294Z,73.93
2022-10-20T00:54:05.651Z,73.97
2022-10-20T00:56:06.940Z,73.82
2022-10-20T00:58:08.204Z,73.86
2022-10-20T01:00:09.511Z,74.30
2022-10-20T01:02:10.886Z,74.17
2022-10-20T01:04:12.146Z,74.51
2022-10-20T01:06:13.523Z,74.03
2022-10-20T01:08:14.861Z,74.04
2022-10-20T01:10:16.135Z,73.96
2022-10-20T01:12:17.464Z,74.07
2022-10-20T01:14:18.753Z,74.53
2022-10-20T01:16:20.063Z,74.54
2022-10-20T01:18:21.335Z,74.61
2022-10-20T01:20:22.680Z,74.72
2022-10-20T01:22:23.964Z,74.15
2022-10-20T01:24:25.273Z,74.80
2022-10-20T01:26:26.609Z,74.40
2022-10-20T01:28:27.878Z,74.74
2022-10-20T01:30:30.595Z,75.12
2022-10-20T01:32:31.855Z,75.03
2022-10-20T01:34:33.115Z,75.20
2022-10-20T01:36:34.437Z,74.85
2022-10-20T01:38:35.701Z,75.57
2022-10-20T01:40:36.979Z,75.51
2022-10-20T01:42:38.282Z,75.10
2022-10-20T01:44:39.578Z,75.30
2022-10-20T01:46:40.853Z,75.58
2022-10-20T01:48:42.171Z,75.38
2022-10-20T01:50:43.499Z,75.44
2022-10-20T01:52:44.806Z,75.75
2022-10-20T01:54:46.067Z,75.22
2022-10-20T01:56:47.363Z,75.58
2022-10-20T01:58:48.638Z,75.42
2022-10-20T02:00:49.936Z,75.56
2022-10-20T02:02:51.274Z,75.29
2022-10-20T02:04:52.578Z,75.36
2022-10-20T02:06:53.870Z,75.33
2022-10-20T02:08:55.218Z,75.58
2022-10-20T02:10:56.591Z,75.40
2022-10-20T02:12:57.923Z,75.94
2022-10-20T02:14:59.212Z,76.05
2022-10-20T02:17:00.602Z,75.66
2022-10-20T02:19:01.989Z,75.44
2022-10-20T02:21:03.446Z,75.43
2022-10-20T02:23:04.730Z,75.77
2022-10-20T02:25:06.001Z,75.50
2022-10-20T02:27:08.223Z,75.30
2022-10-20T02:29:09.518Z,75.47
2022-10-20T02:31:10.827Z,75.24
2022-10-20T02:33:12.152Z,75.15
2022-10-20T02:35:13.480Z,75.25
2022-10-20T02:37:14.807Z,75.18
2022-10-20T02:39:16.139Z,75.62
2022-10-20T02:41:17.414Z,75.64
2022-10-20T02:43:18.691Z,75.93
2022-10-20T02:45:23.030Z,75.71
2022-10-20T02:47:24.402Z,75.47
2022-10-20T02:49:27.360Z,76.12
2022-10-20T02:51:28.634Z,75.88
2022-10-20T02:53:30.684Z,75.72
2022-10-20T02:55:32.075Z,76.33
2022-10-20T02:57:33.564Z,76.27
2022-10-20T02:59:35.018Z,76.13
2022-10-20T03:01:36.313Z,75.89
2022-10-20T03:03:37.625Z,76.46
2022-10-20T03:05:38.968Z,76.75
2022-10-20T03:07:40.318Z,76.12
2022-10-20T03:09:41.802Z,76.35
2022-10-20T03:11:43.690Z,76.52
2022-10-20T03:13:45.107Z,76.90
2022-10-20T03:15:46.427Z,76.96
2022-10-20T03:17:47.715Z,76.38
2022-10-20T03:19:48.989Z,76.75
2022-10-20T03:21:50.330Z,76.29
2022-10-20T03:23:51.656Z,76.31
2022-10-20T03:25:52.947Z,76.48
2022-10-20T03:27:54.229Z,76.16
2022-10-20T03:29:55.577Z,76.17
2022-10-20T03:31:56.863Z,76.11
2022-10-20T03:33:58.175Z,75.74
2022-10-20T03:35:59.448Z,75.46
2022-10-20T03:38:00.731Z,75.03
2022-10-20T03:40:02.047Z,75.04
2022-10-20T03:42:03.351Z,75.15
2022-10-20T03:44:04.639Z,74.91
2022-10-20T03:46:05.960Z,74.71
2022-10-20T03:48:07.244Z,74.75
2022-10-20T03:50:08.511Z,74.84
2022-10-20T03:52:09.840Z,74.74
2022-10-20T03:54:11.135Z,74.53
2022-10-20T03:56:12.395Z,74.97
2022-10-20T03:58:13.719Z,74.49
2022-10-20T04:00:15.019Z,74.61
2022-10-20T04:02:16.337Z,74.88
2022-10-20T04:04:17.714Z,75.24
2022-10-20T04:06:19.015Z,75.30
2022-10-20T04:08:20.348Z,75.75
2022-10-20T04:10:21.615Z,75.33
2022-10-20T04:12:22.895Z,75.69
2022-10-20T04:14:24.226Z,75.32
2022-10-20T04:16:25.517Z,75.69
2022-10-20T04:18:26.785Z,75.86
2022-10-20T04:20:28.103Z,76.08
2022-10-20T04:22:29.402Z,75.80
2022-10-20T04:24:30.654Z,76.16
2022-10-20T04:26:31.991Z,76.49
2022-10-20T04:28:33.279Z,76.40
2022-10-20T04:30:34.563Z,76.36
2022-10-20T04:32:35.878Z,76.07
2022-10-20T04:34:37.149Z,76.21
2022-10-20T04:36:38.436Z,76.18
2022-10-20T04:38:39.756Z,76.77
2022-10-20T04:40:41.075Z,76.50
2022-10-20T04:42:42.382Z,76.66
2022-10-20T04:44:43.699Z,76.52
2022-10-20T04:46:44.974Z,76.55
2022-10-20T04:48:46.271Z,76.63
2022-10-20T04:50:47.610Z,76.51
2022-10-20T04:52:48.994Z,76.87
2022-10-20T04:54:50.276Z,76.75
2022-10-20T04:56:51.794Z,76.76
2022-10-20T04:58:53.068Z,76.66
2022-10-20T05:00:54.342Z,76.17
2022-10-20T05:02:56.872Z,75.79
2022-10-20T05:04:58.247Z,75.48
2022-10-20T05:06:59.553Z,75.56
2022-10-20T05:09:00.873Z,75.58
2022-10-20T05:11:02.279Z,75.05
2022-10-20T05:13:03.574Z,75.08
2022-10-20T05:15:04.850Z,74.70
2022-10-20T05:17:09.227Z,75.16
2022-10-20T05:19:11.403Z,74.99
2022-10-20T05:21:12.663Z,74.51
2022-10-20T05:23:13.922Z,74.75
2022-10-20T05:27:36.538Z,74.81
2022-10-20T05:29:37.814Z,74.75
2022-10-20T05:31:39.265Z,74.93
2022-10-20T05:33:40.591Z,75.40
2022-10-20T05:35:41.898Z,75.44
2022-10-20T05:37:43.838Z,75.38
2022-10-20T05:39:45.850Z,75.22
2022-10-20T05:41:47.173Z,75.67
2022-10-20T05:43:48.807Z,75.65
2022-10-20T05:45:50.119Z,75.71
2022-10-20T05:47:51.386Z,75.65
2022-10-20T05:49:53.075Z,75.96
2022-10-20T05:51:54.376Z,75.52
2022-10-20T05:53:55.665Z,75.84
2022-10-20T05:55:56.979Z,75.94
2022-10-20T05:57:58.234Z,75.68
2022-10-20T05:59:59.564Z,75.81
2022-10-20T06:02:00.859Z,76.09
2022-10-20T06:04:02.143Z,76.37
2022-10-20T06:06:03.471Z,76.38
2022-10-20T06:08:04.775Z,76.59
2022-10-20T06:10:06.113Z,76.59
2022-10-20T06:14:09.627Z,76.48
2022-10-20T06:16:10.899Z,76.47
2022-10-20T06:18:12.235Z,76.67
2022-10-20T06:20:13.534Z,76.30
2022-10-20T06:22:15.019Z,76.93
2022-10-20T06:24:17.010Z,76.78
2022-10-20T06:26:18.515Z,76.84
2022-10-20T06:28:19.818Z,76.64
2022-10-20T06:30:21.267Z,76.81
2022-10-20T06:32:22.545Z,76.24
2022-10-20T06:34:23.905Z,75.95
2022-10-20T06:36:25.249Z,76.12
2022-10-20T06:38:26.554Z,75.67
2022-10-20T06:40:27.875Z,76.16
2022-10-20T06:42:29.156Z,75.72
2022-10-20T06:44:30.447Z,75.46
2022-10-20T06:46:31.782Z,75.86
2022-10-20T06:48:33.086Z,75.56
2022-10-20T06:50:34.419Z,75.30
2022-10-20T06:52:35.937Z,75.28
2022-10-20T06:54:37.375Z,75.08
2022-10-20T06:56:38.694Z,75.17
2022-10-20T06:58:40.002Z,74.71
2022-10-20T07:00:41.339Z,75.18
2022-10-20T07:02:42.639Z,74.87
2022-10-20T07:04:43.962Z,75.42
2022-10-20T07:06:45.271Z,60.62
2022-10-20T07:08:46.575Z,57.37
2022-10-20T07:10:47.938Z,57.33
2022-10-20T07:12:49.201Z,56.35
2022-10-20T07:14:50.519Z,54.56
2022-10-20T07:16:51.938Z,57.38
2022-10-20T07:18:53.294Z,63.01
2022-10-20T07:20:54.606Z,62.75
2022-10-20T07:22:57.183Z,63.02
2022-10-20T07:24:59.511Z,64.03
2022-10-20T07:27:00.810Z,64.62
2022-10-20T07:29:03.009Z,65.24
2022-10-20T07:31:04.395Z,65.85
2022-10-20T07:33:05.688Z,65.96
2022-10-20T07:35:07.118Z,66.87
2022-10-20T07:37:08.387Z,66.72
2022-10-20T07:39:09.715Z,66.98
2022-10-20T07:41:11.047Z,67.47
2022-10-20T07:43:12.326Z,67.49
2022-10-20T07:45:13.644Z,67.94
2022-10-20T07:47:14.961Z,67.99
2022-10-20T07:49:42.760Z,68.18
2022-10-20T07:51:37.544Z,68.53
2022-10-20T07:53:38.828Z,68.77
2022-10-20T07:55:40.125Z,69.16
2022-10-20T07:57:41.427Z,69.62
2022-10-20T07:59:42.723Z,69.60
2022-10-20T08:01:44.467Z,69.68
2022-10-20T08:03:46.069Z,69.60
2022-10-20T08:05:47.335Z,69.45
2022-10-20T08:07:48.674Z,69.38
2022-10-20T08:09:49.949Z,69.32
2022-10-20T08:11:54.563Z,69.26
2022-10-20T08:13:57.256Z,69.79
2022-10-20T08:15:58.589Z,70.01
2022-10-20T08:17:59.939Z,70.10
2022-10-20T08:20:05.097Z,70.06
2022-10-20T08:22:06.427Z,70.14
2022-10-20T08:24:07.723Z,70.61
2022-10-20T08:26:11.371Z,70.64
2022-10-20T08:28:12.954Z,70.66
2022-10-20T08:30:29.439Z,70.85
2022-10-20T08:32:30.799Z,71.02
2022-10-20T08:34:32.123Z,70.83
2022-10-20T08:36:33.416Z,70.72
2022-10-20T08:38:34.692Z,70.61
2022-10-20T08:40:35.977Z,71.10
2022-10-20T08:42:37.328Z,70.87
2022-10-20T08:44:38.597Z,70.87
2022-10-20T08:46:39.879Z,71.01
2022-10-20T08:48:41.162Z,70.83
2022-10-20T08:50:42.501Z,70.83
2022-10-20T08:52:43.774Z,70.68
2022-10-20T08:54:45.055Z,70.76
2022-10-20T08:56:46.494Z,70.70
2022-10-20T08:58:47.856Z,70.69
2022-10-20T09:00:49.135Z,70.90
2022-10-20T09:02:50.395Z,70.80
2022-10-20T09:04:51.674Z,72.41
2022-10-20T09:06:52.994Z,70.34
2022-10-20T09:08:54.377Z,70.24
2022-10-20T09:10:56.342Z,71.91
2022-10-20T09:13:00.486Z,70.51
2022-10-20T09:15:01.861Z,73.65
2022-10-20T09:17:03.129Z,70.74
2022-10-20T09:19:04.414Z,70.69
2022-10-20T09:21:05.691Z,71.87
2022-10-20T09:23:16.534Z,70.77
2022-10-20T09:25:24.076Z,71.80
2022-10-20T09:27:25.714Z,70.10
2022-10-20T09:29:27.071Z,71.46
2022-10-20T09:31:28.531Z,71.88
2022-10-20T09:33:29.886Z,70.90
2022-10-20T09:35:31.190Z,70.38
2022-10-20T09:37:32.495Z,70.71
2022-10-20T09:39:33.775Z,69.75
2022-10-20T09:41:36.044Z,69.62
2022-10-20T09:43:37.318Z,70.66
2022-10-20T09:45:38.986Z,69.42
2022-10-20T09:47:40.267Z,69.50
2022-10-20T09:49:41.582Z,68.95
2022-10-20T09:51:42.890Z,68.78
2022-10-20T09:53:44.244Z,68.39
2022-10-20T09:55:45.555Z,68.37
2022-10-20T09:57:46.865Z,68.24
2022-10-20T09:59:48.266Z,67.21
2022-10-20T10:01:49.543Z,68.10
2022-10-20T10:03:51.791Z,67.78
2022-10-20T10:05:53.122Z,67.66
2022-10-20T10:07:54.410Z,66.92
2022-10-20T10:09:55.717Z,66.61
2022-10-20T10:11:56.987Z,66.55
2022-10-20T10:13:58.253Z,66.50
2022-10-20T10:15:59.590Z,65.70
2022-10-20T10:18:00.930Z,66.11
2022-10-20T10:20:02.190Z,66.05
2022-10-20T10:22:03.533Z,67.03
2022-10-20T10:24:04.844Z,67.43
2022-10-20T10:26:06.181Z,67.78
2022-10-20T10:28:09.009Z,68.20
2022-10-20T10:30:10.294Z,68.26
2022-10-20T10:32:11.566Z,68.28
2022-10-20T10:34:12.859Z,67.82
2022-10-20T10:36:14.203Z,67.73
2022-10-20T10:38:15.521Z,67.97
2022-10-20T10:40:16.839Z,67.85
2022-10-20T10:42:18.118Z,67.78
2022-10-20T10:44:19.398Z,67.44
2022-10-20T10:46:20.716Z,67.59
2022-10-20T10:48:24.815Z,67.30
2022-10-20T10:50:26.254Z,67.01
2022-10-20T10:52:27.523Z,67.63
2022-10-20T10:54:28.797Z,67.54
2022-10-20T10:56:30.271Z,67.25
2022-10-20T10:58:31.551Z,68.46
2022-10-20T11:00:32.864Z,69.31
2022-10-20T11:02:34.414Z,67.43
2022-10-20T11:04:35.928Z,66.57
2022-10-20T11:06:37.211Z,68.14
2022-10-20T11:08:38.499Z,68.99
2022-10-20T11:10:40.697Z,69.44
2022-10-20T11:12:42.039Z,69.81
2022-10-20T11:14:43.303Z,69.66
2022-10-20T11:16:44.586Z,69.89
2022-10-20T11:18:45.870Z,70.06
2022-10-20T11:20:47.165Z,70.04
2022-10-20T11:22:48.469Z,70.11
2022-10-20T11:24:50.083Z,69.88
2022-10-20T11:26:53.444Z,69.91
2022-10-20T11:28:54.882Z,69.91
2022-10-20T11:30:56.166Z,69.97
2022-10-20T11:33:00.251Z,70.09
2022-10-20T11:35:01.637Z,69.99
2022-10-20T11:37:02.905Z,69.99
2022-10-20T11:39:06.642Z,69.66
2022-10-20T11:41:07.966Z,69.88
2022-10-20T11:43:11.070Z,70.15
2022-10-20T11:45:12.582Z,69.82
2022-10-20T11:47:13.887Z,69.84
2022-10-20T11:49:15.161Z,69.90
2022-10-20T11:51:16.449Z,69.71
2022-10-20T11:53:17.740Z,69.61
2022-10-20T11:55:19.083Z,69.54
2022-10-20T11:57:20.351Z,69.48
2022-10-20T11:59:21.637Z,69.54
2022-10-20T12:01:22.956Z,69.51
2022-10-20T12:03:24.448Z,69.30
2022-10-20T12:05:25.786Z,69.51
2022-10-20T12:07:27.085Z,69.42
2022-10-20T12:11:34.623Z,69.16
2022-10-20T12:13:35.902Z,69.22
2022-10-20T12:15:37.198Z,68.98
2022-10-20T12:17:38.854Z,68.82
2022-10-20T12:19:40.178Z,68.72
2022-10-20T12:21:41.472Z,68.66
2022-10-20T12:23:42.751Z,68.86
2022-10-20T12:25:44.246Z,68.63
2022-10-20T12:27:45.526Z,68.78
2022-10-20T12:29:46.822Z,68.75
2022-10-20T12:31:48.147Z,68.93
2022-10-20T12:33:49.613Z,69.13
2022-10-20T12:35:50.907Z,69.11
2022-10-20T12:37:52.231Z,69.31
2022-10-20T12:39:53.548Z,69.28
2022-10-20T12:41:55.329Z,69.31
2022-10-20T12:43:56.655Z,69.32
2022-10-20T12:45:58.006Z,69.17
2022-10-20T12:47:59.278Z,69.60
2022-10-20T12:50:00.698Z,69.18
2022-10-20T12:52:02.005Z,69.41
2022-10-20T12:54:03.458Z,69.11
2022-10-20T12:56:04.746Z,68.24
2022-10-20T12:58:06.039Z,67.05
2022-10-20T13:00:07.800Z,65.79
2022-10-20T13:02:09.141Z,65.87
2022-10-20T13:04:10.424Z,66.54
2022-10-20T13:06:11.699Z,65.74
2022-10-20T13:08:13.053Z,65.27
2022-10-20T13:10:14.333Z,65.07
2022-10-20T13:12:18.498Z,64.55
2022-10-20T13:14:19.799Z,64.95
2022-10-20T13:16:21.199Z,65.22
2022-10-20T13:18:22.866Z,65.32
2022-10-20T13:20:24.376Z,64.52
2022-10-20T13:22:25.658Z,64.72
2022-10-20T13:24:27.345Z,64.95
2022-10-20T13:26:28.635Z,65.95
2022-10-20T13:28:29.966Z,66.14
2022-10-20T13:30:31.247Z,66.30
2022-10-20T13:32:32.538Z,66.31
2022-10-20T13:34:33.963Z,66.13
2022-10-20T13:36:35.274Z,67.06
2022-10-20T13:38:36.555Z,67.79
2022-10-20T13:40:37.850Z,68.69
2022-10-20T13:42:39.367Z,58.52
2022-10-20T13:44:40.895Z,63.15
2022-10-20T13:46:42.171Z,66.20
2022-10-20T13:48:43.446Z,66.21
2022-10-20T13:50:44.775Z,66.80
2022-10-20T13:52:46.043Z,67.60
2022-10-20T13:54:47.462Z,67.91
2022-10-20T13:56:48.738Z,68.04
2022-10-20T13:58:50.010Z,69.27
2022-10-20T14:00:51.398Z,69.42
2022-10-20T14:02:52.680Z,69.61
2022-10-20T14:04:53.964Z,69.85
2022-10-20T14:06:55.287Z,70.43
2022-10-20T14:08:58.083Z,70.45
2022-10-20T14:10:59.466Z,70.79
2022-10-20T14:13:00.791Z,70.72
2022-10-20T14:15:02.471Z,71.18
2022-10-20T14:17:03.848Z,71.00
2022-10-20T14:19:05.297Z,71.54
2022-10-20T14:21:08.394Z,71.71
2022-10-20T14:23:09.866Z,71.52
2022-10-20T14:25:11.201Z,72.04
2022-10-20T14:27:12.491Z,71.94
2022-10-20T14:29:14.125Z,72.49
2022-10-20T14:31:15.406Z,72.40
2022-10-20T14:33:16.751Z,72.45
2022-10-20T14:35:18.940Z,72.56
2022-10-20T14:37:20.341Z,73.00
2022-10-20T14:39:21.608Z,73.13
2022-10-20T14:41:26.175Z,73.17
2022-10-20T14:43:27.493Z,73.49
2022-10-20T14:45:28.922Z,73.06
2022-10-20T14:47:30.279Z,73.19
2022-10-20T14:49:31.562Z,72.98
2022-10-20T14:51:32.904Z,73.04
2022-10-20T14:53:34.255Z,73.07
2022-10-20T14:55:36.967Z,72.95
2022-10-20T14:57:38.736Z,72.42
2022-10-20T14:59:40.310Z,72.80
2022-10-20T15:01:53.920Z,73.03
2022-10-20T15:03:57.408Z,72.96
2022-10-20T15:05:58.795Z,72.99
2022-10-20T15:08:04.724Z,73.32
2022-10-20T15:10:08.142Z,73.17
2022-10-20T15:12:09.427Z,73.43
2022-10-20T15:14:10.710Z,73.14
2022-10-20T15:16:12.046Z,73.47
2022-10-20T15:18:13.371Z,73.46
2022-10-20T15:20:14.660Z,73.02
2022-10-20T15:22:15.940Z,73.00
2022-10-20T15:24:17.331Z,72.53
2022-10-20T15:26:18.604Z,73.02
2022-10-20T15:28:19.897Z,73.00
2022-10-20T15:30:21.190Z,72.93
2022-10-20T15:32:22.482Z,73.04
2022-10-20T15:34:23.828Z,73.01
2022-10-20T15:36:28.782Z,72.91
2022-10-20T15:38:32.787Z,72.74
2022-10-20T15:40:34.068Z,72.53
2022-10-20T15:42:35.622Z,72.52
2022-10-20T15:44:37.122Z,72.60
2022-10-20T15:46:38.395Z,72.79
2022-10-20T15:48:39.737Z,72.86
2022-10-20T15:50:41.034Z,72.88
2022-10-20T15:52:42.376Z,72.79
2022-10-20T15:54:49.697Z,72.65
2022-10-20T15:56:51.124Z,58.03
2022-10-20T15:58:52.439Z,55.04
2022-10-20T16:00:53.912Z,52.89
2022-10-20T16:02:55.313Z,51.58
2022-10-20T16:04:56.655Z,57.69
2022-10-20T16:07:02.587Z,59.66
2022-10-20T16:09:05.120Z,59.36
2022-10-20T16:11:06.548Z,59.96
2022-10-20T16:13:07.836Z,60.83
2022-10-20T16:15:09.155Z,60.86
2022-10-20T16:17:10.439Z,61.64
2022-10-20T16:19:11.748Z,61.90
2022-10-20T16:21:13.080Z,63.02
2022-10-20T16:23:14.377Z,63.28
2022-10-20T16:25:15.654Z,64.30
2022-10-20T16:27:16.976Z,63.98
2022-10-20T16:29:18.270Z,63.95
2022-10-20T16:31:19.589Z,64.61
2022-10-20T16:33:20.865Z,64.14
2022-10-20T16:35:25.040Z,63.91
2022-10-20T16:37:27.038Z,64.76
2022-10-20T16:39:28.312Z,65.18
2022-10-20T16:41:29.600Z,65.40
2022-10-20T16:43:30.969Z,65.22
2022-10-20T16:45:32.254Z,65.99
2022-10-20T16:47:33.531Z,66.18
2022-10-20T16:49:34.842Z,66.83
2022-10-20T16:51:36.283Z,66.80
2022-10-20T16:53:37.622Z,66.22
2022-10-20T16:55:38.898Z,65.62
2022-10-20T16:57:40.477Z,65.78
2022-10-20T16:59:42.942Z,65.86
2022-10-20T17:01:44.918Z,66.01
2022-10-20T17:03:46.208Z,66.17
2022-10-20T17:05:47.511Z,66.97
2022-10-20T17:07:52.232Z,66.39
2022-10-20T17:09:53.566Z,66.17
2022-10-20T17:11:54.882Z,66.27
2022-10-20T17:13:56.177Z,66.42
2022-10-20T17:15:57.446Z,66.67
2022-10-20T17:17:58.729Z,66.57
2022-10-20T17:20:00.007Z,66.64
2022-10-20T17:22:01.378Z,66.85
2022-10-20T17:24:02.755Z,66.94
2022-10-20T17:26:04.081Z,66.48
2022-10-20T17:28:05.378Z,66.62
2022-10-20T17:30:06.751Z,66.93
2022-10-20T17:32:08.081Z,67.21
2022-10-20T17:34:09.362Z,67.16
2022-10-20T17:36:12.306Z,66.69
2022-10-20T17:38:13.587Z,66.89
2022-10-20T17:40:14.964Z,66.60
2022-10-20T17:42:16.285Z,66.66
2022-10-20T17:44:17.586Z,67.23
2022-10-20T17:46:19.599Z,67.07
2022-10-20T17:48:20.876Z,67.08
2022-10-20T17:50:22.167Z,67.30
2022-10-20T17:52:23.436Z,67.80
2022-10-20T17:54:24.770Z,68.06
2022-10-20T17:56:29.595Z,67.89
2022-10-20T17:58:30.953Z,67.60
2022-10-20T18:00:51.562Z,67.62
2022-10-20T18:02:56.316Z,67.70
2022-10-20T18:04:57.625Z,68.30
2022-10-20T18:06:58.894Z,68.15
2022-10-20T18:09:00.251Z,68.57
2022-10-20T18:11:01.596Z,68.12
2022-10-20T18:13:02.906Z,68.01
2022-10-20T18:15:04.184Z,68.02
2022-10-20T18:17:05.515Z,67.90
2022-10-20T18:19:06.795Z,67.67
2022-10-20T18:21:10.882Z,68.04
2022-10-20T18:23:12.162Z,68.53
2022-10-20T18:25:13.439Z,67.98
2022-10-20T18:27:14.731Z,67.72
2022-10-20T18:29:16.051Z,67.81
2022-10-20T18:31:18.106Z,67.99
2022-10-20T18:33:19.423Z,68.11
2022-10-20T18:35:23.099Z,68.22
2022-10-20T18:37:24.603Z,68.35
2022-10-20T18:39:25.922Z,68.19
2022-10-20T18:41:27.226Z,68.05
2022-10-20T18:43:28.502Z,67.88
2022-10-20T18:45:32.736Z,68.07
2022-10-20T18:47:34.281Z,68.27
2022-10-20T18:49:35.731Z,68.29
2022-10-20T18:51:37.224Z,67.60
2022-10-20T18:53:38.494Z,67.78
2022-10-20T18:55:39.770Z,67.90
2022-10-20T18:57:41.352Z,68.36
2022-10-20T18:59:42.675Z,68.79
2022-10-20T19:01:44.010Z,67.94
2022-10-20T19:03:45.275Z,67.88
2022-10-20T19:05:46.575Z,68.02
2022-10-20T19:07:50.759Z,68.53
2022-10-20T19:09:54.817Z,69.08
2022-10-20T19:11:56.947Z,69.75
2022-10-20T19:13:58.261Z,69.99
2022-10-20T19:15:59.539Z,70.15
2022-10-20T19:18:01.752Z,70.27
2022-10-20T19:20:03.227Z,70.20
2022-10-20T19:22:05.062Z,70.25
2022-10-20T19:24:06.385Z,69.95
2022-10-20T19:26:10.683Z,70.09
2022-10-20T19:28:12.694Z,69.13
2022-10-20T19:30:14.012Z,68.58
2022-10-20T19:32:15.422Z,69.00
2022-10-20T19:34:16.711Z,68.79
2022-10-20T19:36:17.985Z,68.90
2022-10-20T19:38:19.287Z,69.12
2022-10-20T19:40:20.603Z,68.38
2022-10-20T19:42:22.794Z,68.48
2022-10-20T19:44:24.111Z,68.42
2022-10-20T19:46:25.407Z,69.20
2022-10-20T19:48:26.737Z,69.99
2022-10-20T19:50:28.078Z,69.23
2022-10-20T19:54:30.715Z,68.98
2022-10-20T19:56:34.993Z,68.77
2022-10-20T19:58:36.291Z,68.94
2022-10-20T20:00:37.690Z,68.74
2022-10-20T20:02:39.418Z,69.25
2022-10-20T20:04:41.074Z,68.70
2022-10-20T20:06:42.391Z,68.73
2022-10-20T20:08:44.651Z,68.59
2022-10-20T20:10:45.969Z,68.80
2022-10-20T20:12:47.743Z,68.92
2022-10-20T20:14:49.011Z,68.76
2022-10-20T20:16:50.345Z,68.62
2022-10-20T20:18:51.666Z,68.66
2022-10-20T20:20:52.942Z,68.73
2022-10-20T20:22:54.273Z,68.45
2022-10-20T20:24:55.577Z,68.16
2022-10-20T20:26:56.952Z,68.15
2022-10-20T20:28:58.287Z,67.88
2022-10-20T20:31:00.038Z,68.28
2022-10-20T20:33:01.334Z,68.04
2022-10-20T20:37:03.890Z,68.21
2022-10-20T20:39:07.123Z,69.04
2022-10-20T20:41:08.449Z,69.85
2022-10-20T20:43:09.719Z,69.23
2022-10-20T20:45:11.059Z,69.01
2022-10-20T20:47:12.330Z,68.56
2022-10-20T20:49:14.136Z,67.72
2022-10-20T20:51:15.441Z,67.98
2022-10-20T20:53:16.710Z,67.85
2022-10-20T20:55:17.998Z,67.10
2022-10-20T20:57:19.322Z,67.55
2022-10-20T20:59:20.602Z,67.48
2022-10-20T21:01:21.972Z,67.97
2022-10-20T21:03:23.324Z,67.65
2022-10-20T21:05:24.655Z,67.77
2022-10-20T21:07:25.947Z,67.74
2022-10-20T21:09:27.254Z,68.07
2022-10-20T21:11:28.545Z,68.08
2022-10-20T21:13:29.804Z,68.08
2022-10-20T21:15:31.140Z,67.99
2022-10-20T21:17:32.442Z,68.35
2022-10-20T21:19:33.730Z,68.65
2022-10-20T21:21:35.008Z,68.10
2022-10-20T21:23:36.347Z,68.17
2022-10-20T21:25:37.737Z,68.78
2022-10-20T21:27:39.006Z,69.73
2022-10-20T21:29:44.214Z,69.22
2022-10-20T21:31:47.602Z,69.98
2022-10-20T21:33:48.879Z,69.89
2022-10-20T21:35:50.144Z,69.08
2022-10-20T21:37:51.504Z,68.73
2022-10-20T21:39:52.758Z,68.01
2022-10-20T21:41:54.087Z,68.42
2022-10-20T21:43:55.379Z,69.04
2022-10-20T21:45:56.694Z,68.71
2022-10-20T21:47:57.995Z,68.51
2022-10-20T21:49:59.261Z,69.03
2022-10-20T21:52:00.570Z,68.37
2022-10-20T21:54:01.846Z,68.08
2022-10-20T21:56:03.222Z,67.72
2022-10-20T21:58:04.553Z,67.84
2022-10-20T22:00:05.819Z,67.30
2022-10-20T22:02:13.367Z,68.64
2022-10-20T22:04:14.674Z,69.02
2022-10-20T22:06:16.015Z,69.04
2022-10-20T22:08:17.349Z,69.57
2022-10-20T22:10:18.654Z,69.45
2022-10-20T22:12:19.956Z,69.73
2022-10-20T22:14:21.232Z,69.74
2022-10-20T22:16:22.537Z,69.56
2022-10-20T22:18:23.971Z,69.46
2022-10-20T22:20:25.243Z,69.44
2022-10-20T22:22:27.706Z,69.66
2022-10-20T22:24:30.610Z,69.58
2022-10-20T22:26:31.899Z,69.46
2022-10-20T22:28:33.218Z,69.92
2022-10-20T22:30:34.489Z,70.61
2022-10-20T22:32:35.988Z,70.68
2022-10-20T22:34:37.581Z,71.31
2022-10-20T22:36:39.707Z,70.48
2022-10-20T22:38:41.059Z,70.10
2022-10-20T22:40:42.359Z,70.05
2022-10-20T22:42:43.631Z,69.79
2022-10-20T22:44:45.023Z,69.99
2022-10-20T22:46:46.305Z,69.66
2022-10-20T22:48:47.659Z,69.98
2022-10-20T22:50:48.987Z,69.90
2022-10-20T22:52:50.915Z,70.13
2022-10-20T22:54:52.180Z,69.97
2022-10-20T22:56:53.467Z,70.18
2022-10-20T22:58:54.790Z,69.84
2022-10-20T23:00:56.111Z,69.95
2022-10-20T23:02:57.446Z,69.82
2022-10-20T23:04:58.715Z,69.62
2022-10-20T23:09:06.403Z,69.91
2022-10-20T23:11:07.754Z,70.09
2022-10-20T23:13:09.020Z,69.78
2022-10-20T23:15:10.303Z,69.91
2022-10-20T23:17:11.617Z,69.78
2022-10-20T23:19:12.909Z,70.07
2022-10-20T23:21:14.249Z,70.33
2022-10-20T23:23:15.738Z,70.72
2022-10-20T23:25:17.065Z,70.77
2022-10-20T23:27:18.332Z,70.59
2022-10-20T23:29:19.615Z,70.01
2022-10-20T23:31:20.911Z,68.97
2022-10-20T23:33:22.230Z,68.81
2022-10-20T23:35:23.503Z,68.12
2022-10-20T23:37:24.770Z,67.74
2022-10-20T23:39:26.061Z,68.43
2022-10-20T23:41:27.339Z,69.02
2022-10-20T23:43:28.690Z,68.75
2022-10-20T23:45:34.073Z,68.34
2022-10-20T23:47:38.501Z,69.20
2022-10-20T23:49:40.012Z,69.19
2022-10-20T23:51:41.295Z,69.34
2022-10-20T23:53:42.550Z,67.83
2022-10-20T23:55:43.939Z,68.79
2022-10-20T23:57:45.281Z,68.25
2022-10-20T23:59:46.550Z,68.91
